sensor_id;sensor_type;location;lat;lon;timestamp;P1;durP1;ratioP1;P2;durP2;ratioP2
61675;SDS011;47574;52.090;5.244;2022-07-03T00:02:13;3.4;;;2.6;;
61675;SDS011;47574;52.090;5.244;2022-07-03T00:04:01;3.4;;;2.21;;
61675;SDS011;47574;52.090;5.244;2022-07-03T00:05:48;2.4;;;1.7;;
61675;SDS011;47574;52.090;5.244;2022-07-03T00:07:36;4.41;;;1.7;;
61675;SDS011;47574;52.090;5.244;2022-07-03T00:09:23;3.9;;;1.8;;
61675;SDS011;47574;52.090;5.244;2022-07-03T00:11:11;2.21;;;1.7;;
61675;SDS011;47574;52.090;5.244;2022-07-03T00:14:45;3.8;;;1.6;;
61675;SDS011;47574;52.090;5.244;2022-07-03T00:16:32;2.21;;;1.5;;
61675;SDS011;47574;52.090;5.244;2022-07-03T00:18:19;2.6;;;1.8;;
61675;SDS011;47574;52.090;5.244;2022-07-03T00:20:07;2.21;;;1.9;;
61675;SDS011;47574;52.090;5.244;2022-07-03T00:21:55;4.0;;;1.9;;
61675;SDS011;47574;52.090;5.244;2022-07-03T00:23:51;2.8;;;1.6;;
61675;SDS011;47574;52.090;5.244;2022-07-03T00:25:41;4.8;;;1.9;;
61675;SDS011;47574;52.090;5.244;2022-07-03T00:29:20;4.61;;;1.8;;
61675;SDS011;47574;52.090;5.244;2022-07-03T00:31:10;2.21;;;1.7;;
61675;SDS011;47574;52.090;5.244;2022-07-03T00:32:57;2.4;;;1.6;;
61675;SDS011;47574;52.090;5.244;2022-07-03T00:34:47;2.0;;;1.4;;
61675;SDS011;47574;52.090;5.244;2022-07-03T00:36:37;3.1;;;1.8;;
61675;SDS011;47574;52.090;5.244;2022-07-03T00:38:24;3.7;;;1.4;;
61675;SDS011;47574;52.090;5.244;2022-07-03T00:42:00;2.9;;;1.6;;
61675;SDS011;47574;52.090;5.244;2022-07-03T00:43:48;1.9;;;1.4;;
61675;SDS011;47574;52.090;5.244;2022-07-03T00:45:36;3.1;;;1.4;;
61675;SDS011;47574;52.090;5.244;2022-07-03T00:47:31;3.9;;;1.5;;
61675;SDS011;47574;52.090;5.244;2022-07-03T00:49:22;3.1;;;1.8;;
61675;SDS011;47574;52.090;5.244;2022-07-03T00:51:10;4.0;;;2.6;;
61675;SDS011;47574;52.090;5.244;2022-07-03T00:53:03;4.91;;;2.8;;
61675;SDS011;47574;52.090;5.244;2022-07-03T00:54:55;4.5;;;2.8;;
61675;SDS011;47574;52.090;5.244;2022-07-03T00:58:37;4.2;;;2.7;;
61675;SDS011;47574;52.090;5.244;2022-07-03T01:00:26;4.0;;;2.5;;
61675;SDS011;47574;52.090;5.244;2022-07-03T01:02:15;4.2;;;2.5;;
61675;SDS011;47574;52.090;5.244;2022-07-03T01:04:20;3.8;;;2.4;;
61675;SDS011;47574;52.090;5.244;2022-07-03T01:06:26;4.0;;;2.6;;
61675;SDS011;47574;52.090;5.244;2022-07-03T01:08:24;4.91;;;4.2;;
61675;SDS011;47574;52.090;5.244;2022-07-03T01:10:25;4.0;;;2.9;;
61675;SDS011;47574;52.090;5.244;2022-07-03T01:12:26;3.4;;;2.7;;
61675;SDS011;47574;52.090;5.244;2022-07-03T01:14:38;4.41;;;2.7;;
61675;SDS011;47574;52.090;5.244;2022-07-03T01:16:36;3.1;;;2.4;;
61675;SDS011;47574;52.090;5.244;2022-07-03T01:18:29;3.7;;;2.5;;
61675;SDS011;47574;52.090;5.244;2022-07-03T01:20:27;2.9;;;2.31;;
61675;SDS011;47574;52.090;5.244;2022-07-03T01:22:22;3.8;;;3.0;;
61675;SDS011;47574;52.090;5.244;2022-07-03T01:24:37;4.61;;;3.3;;
61675;SDS011;47574;52.090;5.244;2022-07-03T01:26:48;2.31;;;2.1;;
61675;SDS011;47574;52.090;5.244;2022-07-03T01:28:41;3.8;;;2.4;;
61675;SDS011;47574;52.090;5.244;2022-07-03T01:30:32;2.5;;;2.31;;
61675;SDS011;47574;52.090;5.244;2022-07-03T01:34:18;3.3;;;2.6;;
61675;SDS011;47574;52.090;5.244;2022-07-03T01:36:07;3.5;;;2.5;;
61675;SDS011;47574;52.090;5.244;2022-07-03T01:37:55;2.6;;;2.4;;
61675;SDS011;47574;52.090;5.244;2022-07-03T01:39:46;5.11;;;2.9;;
61675;SDS011;47574;52.090;5.244;2022-07-03T01:41:38;3.9;;;2.6;;
61675;SDS011;47574;52.090;5.244;2022-07-03T01:43:27;3.5;;;3.0;;
61675;SDS011;47574;52.090;5.244;2022-07-03T01:45:16;3.8;;;3.0;;
61675;SDS011;47574;52.090;5.244;2022-07-03T01:48:52;3.9;;;2.7;;
61675;SDS011;47574;52.090;5.244;2022-07-03T01:50:43;3.5;;;2.6;;
61675;SDS011;47574;52.090;5.244;2022-07-03T01:52:33;3.7;;;2.6;;
61675;SDS011;47574;52.090;5.244;2022-07-03T01:54:22;3.6;;;2.5;;
61675;SDS011;47574;52.090;5.244;2022-07-03T01:56:11;3.1;;;2.7;;
61675;SDS011;47574;52.090;5.244;2022-07-03T01:58:00;2.9;;;2.6;;
61675;SDS011;47574;52.090;5.244;2022-07-03T01:59:47;2.7;;;2.5;;
61675;SDS011;47574;52.090;5.244;2022-07-03T02:03:31;5.2;;;2.6;;
61675;SDS011;47574;52.090;5.244;2022-07-03T02:05:26;4.3;;;2.6;;
61675;SDS011;47574;52.090;5.244;2022-07-03T02:07:20;3.1;;;2.31;;
61675;SDS011;47574;52.090;5.244;2022-07-03T02:09:17;2.9;;;2.5;;
61675;SDS011;47574;52.090;5.244;2022-07-03T02:11:11;2.8;;;2.31;;
61675;SDS011;47574;52.090;5.244;2022-07-03T02:13:05;3.1;;;2.21;;
61675;SDS011;47574;52.090;5.244;2022-07-03T02:15:03;3.9;;;2.21;;
61675;SDS011;47574;52.090;5.244;2022-07-03T02:16:54;2.7;;;2.0;;
61675;SDS011;47574;52.090;5.244;2022-07-03T02:18:54;3.4;;;2.21;;
61675;SDS011;47574;52.090;5.244;2022-07-03T02:20:52;3.0;;;2.31;;
61675;SDS011;47574;52.090;5.244;2022-07-03T02:22:51;3.6;;;2.4;;
61675;SDS011;47574;52.090;5.244;2022-07-03T02:26:34;3.8;;;2.21;;
61675;SDS011;47574;52.090;5.244;2022-07-03T02:28:28;2.8;;;2.5;;
61675;SDS011;47574;52.090;5.244;2022-07-03T02:30:38;3.8;;;2.31;;
61675;SDS011;47574;52.090;5.244;2022-07-03T02:32:30;3.4;;;2.4;;
61675;SDS011;47574;52.090;5.244;2022-07-03T02:34:22;4.1;;;2.4;;
61675;SDS011;47574;52.090;5.244;2022-07-03T02:36:11;2.4;;;2.21;;
61675;SDS011;47574;52.090;5.244;2022-07-03T02:38:03;3.1;;;1.9;;
61675;SDS011;47574;52.090;5.244;2022-07-03T02:39:57;2.31;;;2.1;;
61675;SDS011;47574;52.090;5.244;2022-07-03T02:41:52;3.7;;;2.31;;
61675;SDS011;47574;52.090;5.244;2022-07-03T02:43:47;3.4;;;2.5;;
61675;SDS011;47574;52.090;5.244;2022-07-03T02:47:38;3.6;;;2.21;;
61675;SDS011;47574;52.090;5.244;2022-07-03T02:49:39;3.4;;;2.4;;
61675;SDS011;47574;52.090;5.244;2022-07-03T02:51:37;2.31;;;2.1;;
61675;SDS011;47574;52.090;5.244;2022-07-03T02:53:30;3.0;;;2.4;;
61675;SDS011;47574;52.090;5.244;2022-07-03T02:55:30;3.0;;;2.7;;
61675;SDS011;47574;52.090;5.244;2022-07-03T02:57:30;4.91;;;2.7;;
61675;SDS011;47574;52.090;5.244;2022-07-03T02:59:27;8.0;;;3.0;;
61675;SDS011;47574;52.090;5.244;2022-07-03T03:01:36;3.4;;;2.8;;
61675;SDS011;47574;52.090;5.244;2022-07-03T03:03:33;4.61;;;3.1;;
61675;SDS011;47574;52.090;5.244;2022-07-03T03:05:23;4.61;;;3.1;;
61675;SDS011;47574;52.090;5.244;2022-07-03T03:07:14;4.7;;;3.0;;
61675;SDS011;47574;52.090;5.244;2022-07-03T03:09:10;4.1;;;2.9;;
61675;SDS011;47574;52.090;5.244;2022-07-03T03:11:07;3.5;;;2.9;;
61675;SDS011;47574;52.090;5.244;2022-07-03T03:14:54;3.8;;;3.4;;
61675;SDS011;47574;52.090;5.244;2022-07-03T03:16:48;3.9;;;2.9;;
61675;SDS011;47574;52.090;5.244;2022-07-03T03:18:40;3.4;;;3.1;;
61675;SDS011;47574;52.090;5.244;2022-07-03T03:20:29;4.1;;;2.9;;
61675;SDS011;47574;52.090;5.244;2022-07-03T03:22:20;5.5;;;2.8;;
61675;SDS011;47574;52.090;5.244;2022-07-03T03:24:25;3.4;;;2.7;;
61675;SDS011;47574;52.090;5.244;2022-07-03T03:26:15;5.11;;;3.2;;
61675;SDS011;47574;52.090;5.244;2022-07-03T03:28:04;4.1;;;3.1;;
61675;SDS011;47574;52.090;5.244;2022-07-03T03:29:52;4.0;;;2.8;;
61675;SDS011;47574;52.090;5.244;2022-07-03T03:33:26;4.5;;;2.7;;
61675;SDS011;47574;52.090;5.244;2022-07-03T03:35:13;3.5;;;2.4;;
61675;SDS011;47574;52.090;5.244;2022-07-03T03:37:01;5.0;;;2.7;;
61675;SDS011;47574;52.090;5.244;2022-07-03T03:38:49;3.9;;;2.6;;
61675;SDS011;47574;52.090;5.244;2022-07-03T03:40:35;2.7;;;2.4;;
61675;SDS011;47574;52.090;5.244;2022-07-03T03:42:22;2.9;;;2.6;;
61675;SDS011;47574;52.090;5.244;2022-07-03T03:45:56;3.5;;;2.6;;
61675;SDS011;47574;52.090;5.244;2022-07-03T03:47:43;3.2;;;2.9;;
61675;SDS011;47574;52.090;5.244;2022-07-03T03:49:31;4.7;;;3.3;;
61675;SDS011;47574;52.090;5.244;2022-07-03T03:51:18;4.3;;;3.2;;
61675;SDS011;47574;52.090;5.244;2022-07-03T03:53:05;3.8;;;3.4;;
61675;SDS011;47574;52.090;5.244;2022-07-03T03:54:52;4.8;;;3.2;;
61675;SDS011;47574;52.090;5.244;2022-07-03T03:58:27;4.91;;;3.6;;
61675;SDS011;47574;52.090;5.244;2022-07-03T04:00:16;4.1;;;3.1;;
61675;SDS011;47574;52.090;5.244;2022-07-03T04:02:03;4.41;;;3.7;;
61675;SDS011;47574;52.090;5.244;2022-07-03T04:03:50;3.5;;;3.2;;
61675;SDS011;47574;52.090;5.244;2022-07-03T04:05:37;5.0;;;3.4;;
61675;SDS011;47574;52.090;5.244;2022-07-03T04:07:24;4.5;;;3.8;;
61675;SDS011;47574;52.090;5.244;2022-07-03T04:10:58;5.7;;;3.7;;
61675;SDS011;47574;52.090;5.244;2022-07-03T04:12:46;7.0;;;3.6;;
61675;SDS011;47574;52.090;5.244;2022-07-03T04:14:33;5.11;;;3.1;;
61675;SDS011;47574;52.090;5.244;2022-07-03T04:16:20;4.0;;;3.3;;
61675;SDS011;47574;52.090;5.244;2022-07-03T04:18:07;3.8;;;3.4;;
61675;SDS011;47574;52.090;5.244;2022-07-03T04:21:41;4.1;;;3.2;;
61675;SDS011;47574;52.090;5.244;2022-07-03T04:23:28;4.1;;;3.2;;
61675;SDS011;47574;52.090;5.244;2022-07-03T04:25:16;4.2;;;3.7;;
61675;SDS011;47574;52.090;5.244;2022-07-03T04:27:03;3.9;;;3.4;;
61675;SDS011;47574;52.090;5.244;2022-07-03T04:28:50;4.0;;;3.1;;
61675;SDS011;47574;52.090;5.244;2022-07-03T04:30:37;4.0;;;3.3;;
61675;SDS011;47574;52.090;5.244;2022-07-03T04:34:12;4.91;;;3.2;;
61675;SDS011;47574;52.090;5.244;2022-07-03T04:35:59;4.1;;;2.9;;
61675;SDS011;47574;52.090;5.244;2022-07-03T04:37:46;4.5;;;3.2;;
61675;SDS011;47574;52.090;5.244;2022-07-03T04:39:33;4.3;;;3.0;;
61675;SDS011;47574;52.090;5.244;2022-07-03T04:41:20;3.5;;;3.2;;
61675;SDS011;47574;52.090;5.244;2022-07-03T04:43:07;5.11;;;3.3;;
61675;SDS011;47574;52.090;5.244;2022-07-03T04:46:41;3.0;;;2.5;;
61675;SDS011;47574;52.090;5.244;2022-07-03T04:48:27;4.41;;;2.8;;
61675;SDS011;47574;52.090;5.244;2022-07-03T04:50:14;4.8;;;2.7;;
61675;SDS011;47574;52.090;5.244;2022-07-03T04:52:01;3.3;;;2.4;;
61675;SDS011;47574;52.090;5.244;2022-07-03T04:53:47;2.6;;;2.21;;
61675;SDS011;47574;52.090;5.244;2022-07-03T04:55:34;2.7;;;2.4;;
61675;SDS011;47574;52.090;5.244;2022-07-03T04:59:07;2.8;;;2.1;;
61675;SDS011;47574;52.090;5.244;2022-07-03T05:00:54;3.4;;;2.31;;
61675;SDS011;47574;52.090;5.244;2022-07-03T05:02:42;4.0;;;2.1;;
61675;SDS011;47574;52.090;5.244;2022-07-03T05:04:29;2.31;;;1.9;;
61675;SDS011;47574;52.090;5.244;2022-07-03T05:06:16;4.3;;;2.1;;
61675;SDS011;47574;52.090;5.244;2022-07-03T05:09:51;5.5;;;2.1;;
61675;SDS011;47574;52.090;5.244;2022-07-03T05:11:38;3.8;;;2.1;;
61675;SDS011;47574;52.090;5.244;2022-07-03T05:13:26;3.1;;;1.8;;
61675;SDS011;47574;52.090;5.244;2022-07-03T05:15:14;3.2;;;1.8;;
61675;SDS011;47574;52.090;5.244;2022-07-03T05:17:00;5.11;;;1.7;;
61675;SDS011;47574;52.090;5.244;2022-07-03T05:18:47;3.0;;;1.8;;
61675;SDS011;47574;52.090;5.244;2022-07-03T05:22:20;5.2;;;1.8;;
61675;SDS011;47574;52.090;5.244;2022-07-03T05:24:07;3.8;;;1.6;;
61675;SDS011;47574;52.090;5.244;2022-07-03T05:25:55;4.41;;;1.9;;
61675;SDS011;47574;52.090;5.244;2022-07-03T05:27:42;3.9;;;1.8;;
61675;SDS011;47574;52.090;5.244;2022-07-03T05:29:29;5.4;;;1.9;;
61675;SDS011;47574;52.090;5.244;2022-07-03T05:31:17;2.5;;;1.2;;
61675;SDS011;47574;52.090;5.244;2022-07-03T05:34:50;4.0;;;1.6;;
61675;SDS011;47574;52.090;5.244;2022-07-03T05:36:36;3.4;;;1.5;;
61675;SDS011;47574;52.090;5.244;2022-07-03T05:41:29;3.5;;;1.5;;
61675;SDS011;47574;52.090;5.244;2022-07-03T05:43:16;6.7;;;1.3;;
61675;SDS011;47574;52.090;5.244;2022-07-03T05:45:04;3.6;;;1.3;;
61675;SDS011;47574;52.090;5.244;2022-07-03T05:46:51;4.1;;;1.4;;
61675;SDS011;47574;52.090;5.244;2022-07-03T05:48:38;5.3;;;1.2;;
61675;SDS011;47574;52.090;5.244;2022-07-03T05:50:25;4.8;;;1.3;;
61675;SDS011;47574;52.090;5.244;2022-07-03T05:52:12;3.3;;;1.3;;
61675;SDS011;47574;52.090;5.244;2022-07-03T05:55:48;4.91;;;1.3;;
61675;SDS011;47574;52.090;5.244;2022-07-03T05:57:35;4.91;;;1.5;;
61675;SDS011;47574;52.090;5.244;2022-07-03T05:59:22;3.2;;;1.11;;
61675;SDS011;47574;52.090;5.244;2022-07-03T06:01:09;4.8;;;1.2;;
61675;SDS011;47574;52.090;5.244;2022-07-03T06:02:56;4.8;;;1.4;;
61675;SDS011;47574;52.090;5.244;2022-07-03T06:04:42;4.8;;;1.3;;
61675;SDS011;47574;52.090;5.244;2022-07-03T06:08:17;4.2;;;1.4;;
61675;SDS011;47574;52.090;5.244;2022-07-03T06:10:04;3.8;;;1.0;;
61675;SDS011;47574;52.090;5.244;2022-07-03T06:11:51;3.3;;;1.11;;
61675;SDS011;47574;52.090;5.244;2022-07-03T06:13:39;6.3;;;1.2;;
61675;SDS011;47574;52.090;5.244;2022-07-03T06:15:26;5.0;;;1.2;;
61675;SDS011;47574;52.090;5.244;2022-07-03T06:17:13;5.5;;;1.4;;
61675;SDS011;47574;52.090;5.244;2022-07-03T06:20:47;6.6;;;1.3;;
61675;SDS011;47574;52.090;5.244;2022-07-03T06:22:34;5.2;;;1.3;;
61675;SDS011;47574;52.090;5.244;2022-07-03T06:24:21;4.8;;;1.11;;
61675;SDS011;47574;52.090;5.244;2022-07-03T06:26:08;6.0;;;1.4;;
61675;SDS011;47574;52.090;5.244;2022-07-03T06:27:55;3.7;;;1.11;;
61675;SDS011;47574;52.090;5.244;2022-07-03T06:29:42;4.41;;;1.11;;
61675;SDS011;47574;52.090;5.244;2022-07-03T06:33:17;5.4;;;1.3;;
61675;SDS011;47574;52.090;5.244;2022-07-03T06:35:05;6.7;;;1.3;;
61675;SDS011;47574;52.090;5.244;2022-07-03T06:38:39;7.1;;;1.6;;
61675;SDS011;47574;52.090;5.244;2022-07-03T06:40:25;4.61;;;1.2;;
61675;SDS011;47574;52.090;5.244;2022-07-03T06:42:13;6.8;;;1.4;;
61675;SDS011;47574;52.090;5.244;2022-07-03T06:45:47;5.7;;;1.4;;
61675;SDS011;47574;52.090;5.244;2022-07-03T06:47:36;6.3;;;1.7;;
61675;SDS011;47574;52.090;5.244;2022-07-03T06:49:23;5.9;;;1.5;;
61675;SDS011;47574;52.090;5.244;2022-07-03T06:51:10;5.8;;;1.5;;
61675;SDS011;47574;52.090;5.244;2022-07-03T06:52:56;6.0;;;1.4;;
61675;SDS011;47574;52.090;5.244;2022-07-03T06:56:30;6.3;;;1.4;;
61675;SDS011;47574;52.090;5.244;2022-07-03T06:58:17;6.3;;;1.6;;
61675;SDS011;47574;52.090;5.244;2022-07-03T07:00:05;5.6;;;1.7;;
61675;SDS011;47574;52.090;5.244;2022-07-03T07:01:52;4.8;;;1.7;;
61675;SDS011;47574;52.090;5.244;2022-07-03T07:03:39;4.1;;;1.5;;
61675;SDS011;47574;52.090;5.244;2022-07-03T07:09:00;6.4;;;1.6;;
61675;SDS011;47574;52.090;5.244;2022-07-03T07:10:47;5.8;;;1.7;;
61675;SDS011;47574;52.090;5.244;2022-07-03T07:12:34;5.9;;;1.6;;
61675;SDS011;47574;52.090;5.244;2022-07-03T07:14:22;6.4;;;1.4;;
61675;SDS011;47574;52.090;5.244;2022-07-03T07:16:09;4.91;;;1.7;;
61675;SDS011;47574;52.090;5.244;2022-07-03T07:17:56;5.4;;;1.3;;
61675;SDS011;47574;52.090;5.244;2022-07-03T07:21:30;4.41;;;1.4;;
61675;SDS011;47574;52.090;5.244;2022-07-03T07:23:17;6.9;;;2.21;;
61675;SDS011;47574;52.090;5.244;2022-07-03T07:25:05;7.9;;;1.6;;
61675;SDS011;47574;52.090;5.244;2022-07-03T07:26:52;4.41;;;1.4;;
61675;SDS011;47574;52.090;5.244;2022-07-03T07:28:39;4.41;;;1.8;;
61675;SDS011;47574;52.090;5.244;2022-07-03T07:30:26;4.7;;;1.6;;
61675;SDS011;47574;52.090;5.244;2022-07-03T07:34:04;5.2;;;1.5;;
61675;SDS011;47574;52.090;5.244;2022-07-03T07:35:51;5.9;;;1.6;;
61675;SDS011;47574;52.090;5.244;2022-07-03T07:37:38;4.1;;;1.5;;
61675;SDS011;47574;52.090;5.244;2022-07-03T07:39:26;4.61;;;1.5;;
61675;SDS011;47574;52.090;5.244;2022-07-03T07:41:13;5.5;;;1.5;;
61675;SDS011;47574;52.090;5.244;2022-07-03T07:43:00;5.7;;;1.2;;
61675;SDS011;47574;52.090;5.244;2022-07-03T07:46:34;5.3;;;1.5;;
61675;SDS011;47574;52.090;5.244;2022-07-03T07:48:21;5.0;;;1.4;;
61675;SDS011;47574;52.090;5.244;2022-07-03T07:50:08;3.7;;;1.5;;
61675;SDS011;47574;52.090;5.244;2022-07-03T07:51:56;2.8;;;1.0;;
61675;SDS011;47574;52.090;5.244;2022-07-03T07:53:43;6.1;;;1.2;;
61675;SDS011;47574;52.090;5.244;2022-07-03T07:55:30;3.7;;;1.2;;
61675;SDS011;47574;52.090;5.244;2022-07-03T07:59:05;2.31;;;1.11;;
61675;SDS011;47574;52.090;5.244;2022-07-03T08:06:58;4.0;;;1.3;;
61675;SDS011;47574;52.090;5.244;2022-07-03T08:08:46;5.4;;;1.5;;
61675;SDS011;47574;52.090;5.244;2022-07-03T08:10:33;3.4;;;1.2;;
61675;SDS011;47574;52.090;5.244;2022-07-03T08:12:23;4.5;;;1.6;;
61675;SDS011;47574;52.090;5.244;2022-07-03T08:15:58;2.8;;;1.11;;
61675;SDS011;47574;52.090;5.244;2022-07-03T08:17:45;3.2;;;1.3;;
61675;SDS011;47574;52.090;5.244;2022-07-03T08:19:33;4.1;;;1.3;;
61675;SDS011;47574;52.090;5.244;2022-07-03T08:21:20;3.3;;;1.2;;
61675;SDS011;47574;52.090;5.244;2022-07-03T08:23:07;4.0;;;1.3;;
61675;SDS011;47574;52.090;5.244;2022-07-03T08:24:53;2.5;;;1.2;;
61675;SDS011;47574;52.090;5.244;2022-07-03T08:28:29;2.31;;;1.11;;
61675;SDS011;47574;52.090;5.244;2022-07-03T08:30:17;4.91;;;1.11;;
61675;SDS011;47574;52.090;5.244;2022-07-03T08:32:07;3.4;;;1.11;;
61675;SDS011;47574;52.090;5.244;2022-07-03T08:33:54;4.41;;;1.5;;
61675;SDS011;47574;52.090;5.244;2022-07-03T08:35:41;3.0;;;1.11;;
61675;SDS011;47574;52.090;5.244;2022-07-03T08:37:29;3.3;;;1.2;;
61675;SDS011;47574;52.090;5.244;2022-07-03T08:41:04;3.4;;;1.11;;
61675;SDS011;47574;52.090;5.244;2022-07-03T08:42:53;4.7;;;0.9;;
61675;SDS011;47574;52.090;5.244;2022-07-03T08:44:42;3.9;;;1.0;;
61675;SDS011;47574;52.090;5.244;2022-07-03T08:46:31;3.6;;;1.3;;
61675;SDS011;47574;52.090;5.244;2022-07-03T08:48:19;5.9;;;1.2;;
61675;SDS011;47574;52.090;5.244;2022-07-03T08:50:09;2.1;;;1.0;;
61675;SDS011;47574;52.090;5.244;2022-07-03T08:51:57;4.91;;;1.0;;
61675;SDS011;47574;52.090;5.244;2022-07-03T08:55:34;4.2;;;1.0;;
61675;SDS011;47574;52.090;5.244;2022-07-03T08:57:21;4.61;;;1.2;;
61675;SDS011;47574;52.090;5.244;2022-07-03T08:59:10;4.61;;;1.2;;
61675;SDS011;47574;52.090;5.244;2022-07-03T09:00:58;3.9;;;1.2;;
61675;SDS011;47574;52.090;5.244;2022-07-03T09:02:47;5.3;;;1.3;;
61675;SDS011;47574;52.090;5.244;2022-07-03T09:04:35;3.0;;;1.2;;
61675;SDS011;47574;52.090;5.244;2022-07-03T09:08:10;4.0;;;1.2;;
61675;SDS011;47574;52.090;5.244;2022-07-03T09:09:57;4.1;;;1.11;;
61675;SDS011;47574;52.090;5.244;2022-07-03T09:11:45;3.3;;;1.11;;
61675;SDS011;47574;52.090;5.244;2022-07-03T09:13:33;2.8;;;1.11;;
61675;SDS011;47574;52.090;5.244;2022-07-03T09:15:21;4.41;;;1.2;;
61675;SDS011;47574;52.090;5.244;2022-07-03T09:17:09;2.1;;;0.9;;
61675;SDS011;47574;52.090;5.244;2022-07-03T09:20:44;2.1;;;0.9;;
61675;SDS011;47574;52.090;5.244;2022-07-03T09:22:32;4.2;;;1.3;;
61675;SDS011;47574;52.090;5.244;2022-07-03T09:24:20;4.2;;;1.5;;
61675;SDS011;47574;52.090;5.244;2022-07-03T09:26:11;4.1;;;1.5;;
61675;SDS011;47574;52.090;5.244;2022-07-03T09:28:00;5.2;;;1.4;;
61675;SDS011;47574;52.090;5.244;2022-07-03T09:29:51;4.2;;;1.7;;
61675;SDS011;47574;52.090;5.244;2022-07-03T09:31:43;4.41;;;1.7;;
61675;SDS011;47574;52.090;5.244;2022-07-03T09:35:40;7.8;;;1.8;;
61675;SDS011;47574;52.090;5.244;2022-07-03T09:37:31;2.9;;;1.2;;
61675;SDS011;47574;52.090;5.244;2022-07-03T09:39:19;4.0;;;1.2;;
61675;SDS011;47574;52.090;5.244;2022-07-03T09:41:08;5.5;;;1.2;;
61675;SDS011;47574;52.090;5.244;2022-07-03T09:42:57;4.61;;;1.4;;
61675;SDS011;47574;52.090;5.244;2022-07-03T09:44:46;3.9;;;1.4;;
61675;SDS011;47574;52.090;5.244;2022-07-03T09:46:32;2.21;;;1.11;;
61675;SDS011;47574;52.090;5.244;2022-07-03T09:50:13;3.3;;;1.2;;
61675;SDS011;47574;52.090;5.244;2022-07-03T09:52:00;2.6;;;1.11;;
61675;SDS011;47574;52.090;5.244;2022-07-03T09:53:49;2.6;;;1.11;;
61675;SDS011;47574;52.090;5.244;2022-07-03T09:55:39;2.31;;;1.0;;
61675;SDS011;47574;52.090;5.244;2022-07-03T09:57:27;2.4;;;0.9;;
61675;SDS011;47574;52.090;5.244;2022-07-03T09:59:15;2.5;;;1.0;;
61675;SDS011;47574;52.090;5.244;2022-07-03T10:01:14;3.0;;;1.11;;
61675;SDS011;47574;52.090;5.244;2022-07-03T10:04:56;2.5;;;1.0;;
61675;SDS011;47574;52.090;5.244;2022-07-03T10:06:59;3.4;;;1.2;;
61675;SDS011;47574;52.090;5.244;2022-07-03T10:08:46;2.0;;;1.0;;
61675;SDS011;47574;52.090;5.244;2022-07-03T10:10:35;4.3;;;1.4;;
61675;SDS011;47574;52.090;5.244;2022-07-03T10:12:23;2.6;;;1.11;;
61675;SDS011;47574;52.090;5.244;2022-07-03T10:14:11;2.5;;;1.0;;
61675;SDS011;47574;52.090;5.244;2022-07-03T10:16:00;5.4;;;1.6;;
61675;SDS011;47574;52.090;5.244;2022-07-03T10:17:51;1.8;;;1.0;;
61675;SDS011;47574;52.090;5.244;2022-07-03T10:21:25;2.4;;;0.9;;
61675;SDS011;47574;52.090;5.244;2022-07-03T10:23:13;4.2;;;1.11;;
61675;SDS011;47574;52.090;5.244;2022-07-03T10:25:02;1.6;;;0.9;;
61675;SDS011;47574;52.090;5.244;2022-07-03T10:26:50;3.1;;;1.0;;
61675;SDS011;47574;52.090;5.244;2022-07-03T10:28:38;2.1;;;1.0;;
61675;SDS011;47574;52.090;5.244;2022-07-03T10:30:26;2.31;;;0.9;;
61675;SDS011;47574;52.090;5.244;2022-07-03T10:34:02;4.0;;;0.9;;
61675;SDS011;47574;52.090;5.244;2022-07-03T10:35:51;2.7;;;0.8;;
61675;SDS011;47574;52.090;5.244;2022-07-03T10:37:43;1.8;;;0.8;;
61675;SDS011;47574;52.090;5.244;2022-07-03T10:39:48;2.0;;;0.7;;
61675;SDS011;47574;52.090;5.244;2022-07-03T10:45:04;5.0;;;0.9;;
61675;SDS011;47574;52.090;5.244;2022-07-03T10:48:52;2.6;;;0.8;;
61675;SDS011;47574;52.090;5.244;2022-07-03T10:50:46;2.21;;;0.9;;
61675;SDS011;47574;52.090;5.244;2022-07-03T10:53:21;2.1;;;0.7;;
61675;SDS011;47574;52.090;5.244;2022-07-03T10:55:09;3.5;;;1.3;;
61675;SDS011;47574;52.090;5.244;2022-07-03T10:57:14;3.4;;;0.9;;
61675;SDS011;47574;52.090;5.244;2022-07-03T10:59:15;2.4;;;1.0;;
61675;SDS011;47574;52.090;5.244;2022-07-03T11:01:02;4.91;;;0.9;;
61675;SDS011;47574;52.090;5.244;2022-07-03T11:02:50;4.2;;;1.2;;
61675;SDS011;47574;52.090;5.244;2022-07-03T11:05:03;3.3;;;1.11;;
61675;SDS011;47574;52.090;5.244;2022-07-03T11:07:09;2.7;;;1.0;;
61675;SDS011;47574;52.090;5.244;2022-07-03T11:09:00;4.2;;;1.2;;
61675;SDS011;47574;52.090;5.244;2022-07-03T11:11:54;2.9;;;1.2;;
61675;SDS011;47574;52.090;5.244;2022-07-03T11:14:00;2.8;;;1.4;;
61675;SDS011;47574;52.090;5.244;2022-07-03T11:16:05;3.3;;;1.3;;
61675;SDS011;47574;52.090;5.244;2022-07-03T11:18:10;4.41;;;2.31;;
61675;SDS011;47574;52.090;5.244;2022-07-03T11:20:46;3.9;;;1.9;;
61675;SDS011;47574;52.090;5.244;2022-07-03T11:23:23;3.4;;;1.7;;
61675;SDS011;47574;52.090;5.244;2022-07-03T11:25:27;4.2;;;1.7;;
61675;SDS011;47574;52.090;5.244;2022-07-03T11:27:26;3.8;;;1.7;;
61675;SDS011;47574;52.090;5.244;2022-07-03T11:29:25;2.5;;;1.5;;
61675;SDS011;47574;52.090;5.244;2022-07-03T11:31:17;2.31;;;1.4;;
61675;SDS011;47574;52.090;5.244;2022-07-03T11:33:05;2.8;;;1.8;;
61675;SDS011;47574;52.090;5.244;2022-07-03T11:36:39;4.1;;;1.8;;
61675;SDS011;47574;52.090;5.244;2022-07-03T11:38:27;2.7;;;1.4;;
61675;SDS011;47574;52.090;5.244;2022-07-03T11:40:15;3.0;;;1.6;;
61675;SDS011;47574;52.090;5.244;2022-07-03T11:42:05;4.1;;;1.9;;
61675;SDS011;47574;52.090;5.244;2022-07-03T11:43:53;3.7;;;1.9;;
61675;SDS011;47574;52.090;5.244;2022-07-03T11:45:45;2.4;;;1.5;;
61675;SDS011;47574;52.090;5.244;2022-07-03T11:49:25;2.4;;;1.4;;
61675;SDS011;47574;52.090;5.244;2022-07-03T11:51:11;5.5;;;1.8;;
61675;SDS011;47574;52.090;5.244;2022-07-03T11:52:59;6.7;;;2.7;;
61675;SDS011;47574;52.090;5.244;2022-07-03T11:54:50;2.4;;;1.3;;
61675;SDS011;47574;52.090;5.244;2022-07-03T11:56:38;2.8;;;1.3;;
61675;SDS011;47574;52.090;5.244;2022-07-03T11:58:26;3.2;;;1.3;;
61675;SDS011;47574;52.090;5.244;2022-07-03T12:00:28;2.4;;;1.2;;
61675;SDS011;47574;52.090;5.244;2022-07-03T12:04:05;3.2;;;0.9;;
61675;SDS011;47574;52.090;5.244;2022-07-03T12:05:54;3.0;;;1.2;;
61675;SDS011;47574;52.090;5.244;2022-07-03T12:07:43;2.5;;;1.2;;
61675;SDS011;47574;52.090;5.244;2022-07-03T12:09:31;3.5;;;1.2;;
61675;SDS011;47574;52.090;5.244;2022-07-03T12:11:20;2.8;;;1.0;;
61675;SDS011;47574;52.090;5.244;2022-07-03T12:13:17;2.5;;;0.9;;
61675;SDS011;47574;52.090;5.244;2022-07-03T12:15:05;2.4;;;1.11;;
61675;SDS011;47574;52.090;5.244;2022-07-03T12:18:43;1.6;;;1.0;;
61675;SDS011;47574;52.090;5.244;2022-07-03T12:20:33;3.0;;;1.3;;
61675;SDS011;47574;52.090;5.244;2022-07-03T12:22:21;4.8;;;2.0;;
61675;SDS011;47574;52.090;5.244;2022-07-03T12:24:12;3.4;;;1.6;;
61675;SDS011;47574;52.090;5.244;2022-07-03T12:26:00;4.5;;;1.5;;
61675;SDS011;47574;52.090;5.244;2022-07-03T12:27:47;3.5;;;1.4;;
61675;SDS011;47574;52.090;5.244;2022-07-03T12:29:35;3.6;;;1.3;;
61675;SDS011;47574;52.090;5.244;2022-07-03T12:33:11;2.5;;;1.11;;
61675;SDS011;47574;52.090;5.244;2022-07-03T12:34:59;1.4;;;1.0;;
61675;SDS011;47574;52.090;5.244;2022-07-03T12:36:54;3.3;;;1.11;;
61675;SDS011;47574;52.090;5.244;2022-07-03T12:38:47;2.6;;;1.11;;
61675;SDS011;47574;52.090;5.244;2022-07-03T12:40:34;1.7;;;0.9;;
61675;SDS011;47574;52.090;5.244;2022-07-03T12:42:21;1.8;;;1.11;;
61675;SDS011;47574;52.090;5.244;2022-07-03T12:44:08;1.4;;;1.0;;
61675;SDS011;47574;52.090;5.244;2022-07-03T12:47:42;3.1;;;1.11;;
61675;SDS011;47574;52.090;5.244;2022-07-03T12:49:30;1.5;;;1.2;;
61675;SDS011;47574;52.090;5.244;2022-07-03T12:51:53;3.0;;;1.0;;
61675;SDS011;47574;52.090;5.244;2022-07-03T12:53:39;1.7;;;1.0;;
61675;SDS011;47574;52.090;5.244;2022-07-03T12:55:29;2.4;;;1.2;;
61675;SDS011;47574;52.090;5.244;2022-07-03T13:00:21;1.8;;;1.0;;
61675;SDS011;47574;52.090;5.244;2022-07-03T13:02:07;3.7;;;1.3;;
61675;SDS011;47574;52.090;5.244;2022-07-03T13:03:54;3.5;;;1.4;;
61675;SDS011;47574;52.090;5.244;2022-07-03T13:05:42;2.5;;;1.0;;
61675;SDS011;47574;52.090;5.244;2022-07-03T13:07:29;2.21;;;1.11;;
61675;SDS011;47574;52.090;5.244;2022-07-03T13:09:24;2.9;;;1.0;;
61675;SDS011;47574;52.090;5.244;2022-07-03T13:12:58;2.9;;;1.2;;
61675;SDS011;47574;52.090;5.244;2022-07-03T13:14:54;1.8;;;1.0;;
61675;SDS011;47574;52.090;5.244;2022-07-03T13:16:43;1.9;;;1.2;;
61675;SDS011;47574;52.090;5.244;2022-07-03T13:18:31;3.2;;;1.2;;